createdAt,value
2017-09-05T00:01:14.075Z,7.23
2017-09-05T00:03:41.393Z,7.60
2017-09-05T00:06:08.720Z,7.80
2017-09-05T00:08:41.887Z,7.40
2017-09-05T00:11:20.991Z,7.90
2017-09-05T00:13:48.330Z,8.20
2017-09-05T00:16:19.199Z,7.80
2017-09-05T00:18:49.200Z,8.90
2017-09-05T00:21:21.239Z,9.40
2017-09-05T00:23:48.577Z,9.67
2017-09-05T00:26:15.913Z,9.60
2017-09-05T00:28:43.284Z,9.80
2017-09-05T00:31:10.594Z,10.57
2017-09-05T00:33:37.949Z,10.47
2017-09-05T00:36:05.344Z,10.10
2017-09-05T00:38:32.652Z,11.00
2017-09-05T00:40:59.975Z,11.90
2017-09-05T00:43:27.318Z,11.60
2017-09-05T00:45:54.649Z,11.13
2017-09-05T00:48:22.013Z,11.67
2017-09-05T00:50:49.343Z,11.40
2017-09-05T00:53:16.664Z,11.63
2017-09-05T00:55:44.001Z,11.20
2017-09-05T00:58:11.352Z,12.13
2017-09-05T01:00:38.675Z,11.67
2017-09-05T01:03:05.981Z,13.00
2017-09-05T01:05:33.310Z,11.90
2017-09-05T01:08:00.613Z,12.83
2017-09-05T01:10:27.963Z,12.90
2017-09-05T01:12:55.283Z,12.97
2017-09-05T01:15:22.621Z,11.90
2017-09-05T01:17:49.925Z,12.97
2017-09-05T01:20:17.260Z,12.97
2017-09-05T01:22:44.574Z,12.93
2017-09-05T01:25:11.904Z,13.03
2017-09-05T01:27:39.220Z,12.73
2017-09-05T01:30:06.546Z,12.40
2017-09-05T01:32:33.862Z,12.00
2017-09-05T01:35:01.214Z,13.40
2017-09-05T01:37:28.534Z,13.30
2017-09-05T01:39:55.863Z,13.03
2017-09-05T01:42:23.177Z,12.70
2017-09-05T01:44:50.537Z,12.97
2017-09-05T01:47:17.870Z,14.37
2017-09-05T01:49:45.203Z,13.77
2017-09-05T01:52:12.547Z,14.00
2017-09-05T01:54:39.924Z,14.30
2017-09-05T01:57:07.224Z,14.30
2017-09-05T01:59:35.509Z,15.10
2017-09-05T02:02:02.814Z,16.20
2017-09-05T02:04:30.167Z,14.47
2017-09-05T02:06:57.460Z,15.60
2017-09-05T02:09:24.793Z,14.50
2017-09-05T02:11:52.107Z,15.10
2017-09-05T02:14:19.459Z,15.10
2017-09-05T02:16:46.779Z,15.00
2017-09-05T02:19:14.151Z,14.20
2017-09-05T02:21:41.469Z,14.93
2017-09-05T02:24:08.815Z,15.40
2017-09-05T02:26:36.176Z,15.07
2017-09-05T02:29:03.482Z,14.93
2017-09-05T02:31:30.846Z,15.40
2017-09-05T02:33:58.165Z,15.43
2017-09-05T02:36:25.529Z,15.77
2017-09-05T02:38:52.859Z,15.50
2017-09-05T02:41:20.232Z,15.60
2017-09-05T02:43:48.440Z,14.70
2017-09-05T02:46:15.773Z,13.90
2017-09-05T02:48:43.079Z,15.07
2017-09-05T02:51:10.397Z,15.10
2017-09-05T02:53:37.738Z,15.60
2017-09-05T02:56:05.051Z,15.57
2017-09-05T02:58:32.392Z,14.53
2017-09-05T03:00:59.720Z,15.40
2017-09-05T03:03:27.011Z,14.97
2017-09-05T03:05:54.321Z,15.07
2017-09-05T03:08:21.647Z,15.80
2017-09-05T03:10:48.960Z,15.80
2017-09-05T03:13:16.270Z,15.10
2017-09-05T03:15:43.596Z,15.87
2017-09-05T03:18:10.923Z,14.83
2017-09-05T03:20:38.273Z,15.77
2017-09-05T03:23:05.583Z,16.27
2017-09-05T03:25:32.925Z,16.00
2017-09-05T03:28:00.226Z,16.77
2017-09-05T03:30:27.551Z,15.60
2017-09-05T03:32:54.867Z,16.13
2017-09-05T03:35:22.211Z,16.30
2017-09-05T03:37:49.532Z,17.93
2017-09-05T03:40:16.839Z,16.33
2017-09-05T03:42:44.153Z,16.43
2017-09-05T03:45:11.485Z,15.73
2017-09-05T03:47:39.923Z,16.50
2017-09-05T03:50:07.245Z,16.33
2017-09-05T03:52:34.557Z,17.70
2017-09-05T03:55:01.861Z,16.53
2017-09-05T03:57:29.219Z,16.10
2017-09-05T03:59:56.549Z,17.47
2017-09-05T04:02:23.893Z,16.97
2017-09-05T04:04:51.227Z,16.77
2017-09-05T04:07:18.560Z,16.87
2017-09-05T04:09:45.888Z,16.90
2017-09-05T04:12:13.212Z,17.40
2017-09-05T04:14:40.517Z,18.47
2017-09-05T04:17:07.849Z,17.50
2017-09-05T04:19:35.351Z,18.03
2017-09-05T04:22:02.686Z,18.23
2017-09-05T04:24:29.996Z,18.93
2017-09-05T04:26:57.317Z,18.30
2017-09-05T04:29:24.641Z,18.67
2017-09-05T04:31:51.982Z,19.90
2017-09-05T04:34:19.328Z,18.90
2017-09-05T04:36:46.674Z,18.30
2017-09-05T04:39:13.976Z,19.70
2017-09-05T04:41:41.296Z,18.13
2017-09-05T04:44:08.606Z,20.00
2017-09-05T04:46:35.937Z,19.57
2017-09-05T04:49:03.252Z,18.70
2017-09-05T04:51:30.581Z,18.90
2017-09-05T04:53:57.884Z,18.87
2017-09-05T04:56:25.249Z,19.10
2017-09-05T04:58:52.575Z,18.40
2017-09-05T05:01:19.957Z,19.00
2017-09-05T05:03:47.277Z,19.30
2017-09-05T05:06:14.609Z,18.13
2017-09-05T05:08:41.929Z,18.57
2017-09-05T05:11:09.258Z,17.53
2017-09-05T05:13:36.573Z,17.60
2017-09-05T05:16:03.908Z,17.83
2017-09-05T05:18:31.218Z,17.90
2017-09-05T05:20:58.555Z,18.20
2017-09-05T05:23:25.897Z,18.47
2017-09-05T05:25:53.239Z,17.13
2017-09-05T05:28:20.562Z,18.00
2017-09-05T05:30:47.914Z,17.60
2017-09-05T05:33:15.249Z,17.03
2017-09-05T05:35:42.564Z,17.10
2017-09-05T05:38:09.901Z,17.30
2017-09-05T05:40:37.217Z,17.77
2017-09-05T05:43:04.531Z,16.90
2017-09-05T05:45:31.860Z,16.83
2017-09-05T05:47:59.219Z,16.80
2017-09-05T05:50:26.530Z,17.30
2017-09-05T05:52:53.882Z,18.00
2017-09-05T05:55:21.215Z,17.20
2017-09-05T05:57:48.547Z,17.07
2017-09-05T06:00:15.864Z,18.00
2017-09-05T06:02:43.195Z,17.33
2017-09-05T06:05:10.495Z,16.70
2017-09-05T06:07:37.824Z,17.87
2017-09-05T06:10:05.161Z,17.00
2017-09-05T06:12:32.524Z,17.73
2017-09-05T06:14:59.851Z,17.57
2017-09-05T06:17:27.207Z,16.53
2017-09-05T06:19:54.519Z,17.20
2017-09-05T06:22:21.881Z,17.20
2017-09-05T06:24:49.200Z,17.07
2017-09-05T06:27:16.535Z,17.37
2017-09-05T06:29:43.846Z,17.83
2017-09-05T06:32:11.160Z,16.50
2017-09-05T06:34:38.480Z,16.40
2017-09-05T06:37:05.825Z,15.53
2017-09-05T06:39:33.151Z,15.33
2017-09-05T06:42:00.506Z,15.53
2017-09-05T06:44:27.834Z,15.83
2017-09-05T06:46:55.183Z,15.60
2017-09-05T06:49:22.534Z,14.93
2017-09-05T06:51:49.848Z,14.73
2017-09-05T06:54:17.165Z,14.60
2017-09-05T06:56:44.474Z,13.90
2017-09-05T06:59:12.975Z,13.30
2017-09-05T07:01:40.292Z,13.17
2017-09-05T07:04:07.899Z,12.60
2017-09-05T07:06:35.230Z,12.27
2017-09-05T07:09:02.553Z,12.03
2017-09-05T07:11:29.870Z,11.40
2017-09-05T07:13:57.249Z,11.27
2017-09-05T07:16:24.575Z,10.87
2017-09-05T07:18:51.902Z,10.87
2017-09-05T07:21:19.211Z,11.03
2017-09-05T07:23:46.566Z,10.60
2017-09-05T07:26:13.871Z,9.97
2017-09-05T07:28:41.210Z,9.53
2017-09-05T07:31:08.538Z,8.90
2017-09-05T07:33:35.849Z,8.43
2017-09-05T07:36:03.156Z,8.77
2017-09-05T07:38:30.499Z,8.07
2017-09-05T07:40:57.806Z,7.30
2017-09-05T07:43:25.176Z,8.10
2017-09-05T07:45:52.503Z,7.83
2017-09-05T07:48:19.851Z,7.20
2017-09-05T07:50:47.168Z,6.73
2017-09-05T07:53:16.984Z,5.80
2017-09-05T07:55:44.300Z,5.20
2017-09-05T07:58:11.614Z,5.87
2017-09-05T08:00:38.910Z,5.87
2017-09-05T08:03:06.246Z,6.30
2017-09-05T08:05:33.565Z,6.13
2017-09-05T08:08:00.889Z,6.90
2017-09-05T08:10:28.199Z,6.37
2017-09-05T08:12:55.489Z,5.93
2017-09-05T08:15:22.807Z,6.40
2017-09-05T08:17:50.119Z,5.47
2017-09-05T08:20:17.444Z,6.70
2017-09-05T08:22:44.735Z,6.20
2017-09-05T08:25:12.066Z,6.20
2017-09-05T08:27:39.353Z,6.37
2017-09-05T08:30:06.707Z,6.50
2017-09-05T08:32:34.025Z,6.10
2017-09-05T08:35:01.378Z,6.27
2017-09-05T08:37:28.707Z,6.00
2017-09-05T08:39:56.062Z,6.33
2017-09-05T08:42:23.390Z,6.93
2017-09-05T08:44:50.751Z,7.63
2017-09-05T08:47:18.158Z,8.00
2017-09-05T08:49:45.481Z,7.70
2017-09-05T08:52:12.793Z,6.97
2017-09-05T08:54:40.097Z,6.50
2017-09-05T08:57:07.790Z,7.43
2017-09-05T08:59:35.111Z,7.20
2017-09-05T09:02:02.439Z,6.73
2017-09-05T09:04:29.787Z,7.87
2017-09-05T09:06:57.167Z,7.30
2017-09-05T09:09:24.489Z,8.27
2017-09-05T09:11:51.794Z,8.20
2017-09-05T09:14:19.181Z,8.50
2017-09-05T09:16:46.485Z,8.70
2017-09-05T09:19:13.837Z,9.63
2017-09-05T09:21:41.137Z,9.27
2017-09-05T09:24:08.457Z,9.97
2017-09-05T09:26:35.766Z,9.30
2017-09-05T09:29:03.085Z,10.13
2017-09-05T09:31:31.943Z,9.67
2017-09-05T09:33:59.252Z,10.10
2017-09-05T09:36:26.562Z,10.17
2017-09-05T09:38:53.882Z,10.70
2017-09-05T09:41:21.245Z,11.07
2017-09-05T09:43:48.552Z,11.57
2017-09-05T09:46:15.885Z,10.53
2017-09-05T09:48:43.207Z,10.33
2017-09-05T09:51:10.522Z,11.23
2017-09-05T09:53:38.026Z,11.13
2017-09-05T09:56:05.389Z,10.10
2017-09-05T09:58:32.711Z,10.93
2017-09-05T10:01:00.053Z,10.80
2017-09-05T10:03:27.390Z,11.00
2017-09-05T10:05:54.765Z,12.27
2017-09-05T10:08:22.079Z,11.37
2017-09-05T10:10:49.450Z,12.07
2017-09-05T10:13:16.762Z,10.67
2017-09-05T10:15:44.166Z,12.50
2017-09-05T10:18:11.499Z,10.83
2017-09-05T10:20:38.811Z,10.37
2017-09-05T10:23:06.634Z,11.80
2017-09-05T10:25:34.398Z,12.90
2017-09-05T10:28:01.712Z,13.63
2017-09-05T10:30:29.032Z,13.50
2017-09-05T10:32:56.338Z,13.00
2017-09-05T10:35:23.674Z,11.40
2017-09-05T10:37:50.982Z,14.30
2017-09-05T10:40:18.345Z,14.43
2017-09-05T10:42:45.674Z,14.17
2017-09-05T10:45:13.038Z,12.47
2017-09-05T10:47:40.370Z,14.33
2017-09-05T10:50:08.035Z,12.67
2017-09-05T10:52:35.367Z,11.77
2017-09-05T10:55:03.536Z,12.17
2017-09-05T10:57:30.888Z,12.20
2017-09-05T10:59:58.198Z,12.90
2017-09-05T11:02:25.557Z,11.23
2017-09-05T11:04:52.877Z,9.63
2017-09-05T11:07:20.213Z,11.53
2017-09-05T11:09:47.546Z,11.63
2017-09-05T11:12:14.916Z,11.47
2017-09-05T11:14:42.350Z,10.53
2017-09-05T11:17:09.684Z,10.70
2017-09-05T11:19:37.008Z,10.50
2017-09-05T11:22:04.376Z,8.77
2017-09-05T11:24:31.710Z,10.30
2017-09-05T11:26:59.069Z,9.87
2017-09-05T11:29:26.383Z,10.63
2017-09-05T11:31:53.753Z,10.87
2017-09-05T11:34:21.081Z,9.90
2017-09-05T11:36:48.426Z,9.33
2017-09-05T11:39:15.723Z,9.80
2017-09-05T11:41:43.045Z,10.80
2017-09-05T11:44:12.121Z,10.80
2017-09-05T11:46:39.452Z,10.40
2017-09-05T11:49:06.741Z,9.50
2017-09-05T11:51:34.098Z,9.10
2017-09-05T11:54:01.424Z,7.63
2017-09-05T11:56:28.727Z,9.80
2017-09-05T11:58:56.034Z,9.00
2017-09-05T12:01:24.113Z,9.07
2017-09-05T12:03:51.419Z,9.77
2017-09-05T12:06:18.748Z,9.50
2017-09-05T12:08:46.056Z,7.67
2017-09-05T12:11:13.482Z,6.93
2017-09-05T12:13:40.767Z,8.40
2017-09-05T12:16:08.321Z,8.10
2017-09-05T12:18:35.671Z,8.67
2017-09-05T12:21:03.019Z,8.47
2017-09-05T12:23:30.339Z,6.63
2017-09-05T12:25:58.754Z,6.00
2017-09-05T12:28:26.053Z,8.13
2017-09-05T12:30:53.416Z,8.90
2017-09-05T12:33:20.732Z,8.63
2017-09-05T12:35:48.077Z,8.60
2017-09-05T12:38:15.434Z,9.07
2017-09-05T12:40:42.962Z,7.90
2017-09-05T12:43:10.292Z,7.63
2017-09-05T12:45:37.611Z,7.63
2017-09-05T12:48:05.876Z,7.30
2017-09-05T12:50:33.242Z,7.80
2017-09-05T12:53:00.559Z,8.00
2017-09-05T12:55:27.868Z,6.70
2017-09-05T12:57:55.188Z,7.43
2017-09-05T13:00:23.144Z,8.10
2017-09-05T13:02:50.484Z,7.30
2017-09-05T13:05:17.946Z,6.93
2017-09-05T13:07:45.248Z,6.10
2017-09-05T13:10:13.472Z,6.47
2017-09-05T13:12:40.803Z,8.07
2017-09-05T13:15:08.400Z,7.17
2017-09-05T13:17:35.763Z,6.97
2017-09-05T13:20:03.071Z,6.57
2017-09-05T13:22:30.372Z,7.27
2017-09-05T13:24:57.666Z,6.43
2017-09-05T13:27:25.019Z,6.03
2017-09-05T13:29:52.344Z,7.47
2017-09-05T13:32:19.651Z,5.97
2017-09-05T13:34:46.955Z,7.17
2017-09-05T13:37:14.274Z,7.60
2017-09-05T13:39:41.584Z,6.90
2017-09-05T13:42:08.919Z,8.43
2017-09-05T13:44:36.226Z,6.17
2017-09-05T13:47:03.559Z,5.80
2017-09-05T13:49:32.366Z,5.87
2017-09-05T13:51:59.674Z,5.57
2017-09-05T13:54:26.983Z,5.33
2017-09-05T13:56:54.338Z,5.00
2017-09-05T13:59:21.644Z,5.10
2017-09-05T14:01:48.972Z,5.63
2017-09-05T14:04:16.293Z,5.77
2017-09-05T14:06:43.590Z,5.30
2017-09-05T14:09:10.930Z,6.30
2017-09-05T14:11:38.464Z,6.07
2017-09-05T14:14:05.768Z,6.23
2017-09-05T14:16:33.083Z,5.50
2017-09-05T14:19:00.407Z,6.20
2017-09-05T14:21:27.716Z,5.13
2017-09-05T14:23:55.026Z,5.00
2017-09-05T14:26:22.348Z,5.13
2017-09-05T14:28:49.660Z,4.50
2017-09-05T14:31:16.975Z,4.43
2017-09-05T14:33:44.299Z,4.50
2017-09-05T14:36:11.598Z,4.10
2017-09-05T14:38:38.955Z,4.20
2017-09-05T14:41:06.251Z,5.20
2017-09-05T14:43:33.583Z,4.90
2017-09-05T14:46:00.883Z,4.80
2017-09-05T14:48:28.219Z,4.73
2017-09-05T14:50:55.506Z,4.67
2017-09-05T14:53:22.829Z,4.50
2017-09-05T14:55:50.125Z,4.37
2017-09-05T14:58:17.453Z,4.77
2017-09-05T15:00:44.765Z,5.07
2017-09-05T15:03:12.093Z,4.77
2017-09-05T15:05:39.391Z,4.93
2017-09-05T15:08:06.704Z,4.90
2017-09-05T15:10:34.040Z,4.90
2017-09-05T15:13:01.360Z,4.70
2017-09-05T15:15:28.670Z,4.50
2017-09-05T15:17:56.012Z,4.30
2017-09-05T15:20:23.314Z,4.40
2017-09-05T15:22:50.663Z,4.30
2017-09-05T15:25:17.988Z,4.90
2017-09-05T15:27:45.458Z,4.67
2017-09-05T15:30:12.799Z,4.60
2017-09-05T15:32:40.118Z,4.97
2017-09-05T15:35:07.417Z,4.90
2017-09-05T15:37:34.727Z,4.90
2017-09-05T15:40:02.052Z,5.57
2017-09-05T15:42:29.357Z,5.00
2017-09-05T15:44:56.679Z,4.63
2017-09-05T15:47:23.961Z,4.53
2017-09-05T15:49:51.321Z,4.80
2017-09-05T15:52:18.631Z,5.03
2017-09-05T15:54:45.948Z,4.70
2017-09-05T15:57:13.239Z,4.97
2017-09-05T15:59:40.571Z,5.37
2017-09-05T16:02:07.902Z,5.10
2017-09-05T16:04:35.254Z,4.80
2017-09-05T16:07:02.578Z,4.87
2017-09-05T16:09:29.885Z,5.33
2017-09-05T16:11:57.207Z,5.00
2017-09-05T16:14:24.540Z,5.70
2017-09-05T16:16:51.851Z,6.00
2017-09-05T16:19:19.197Z,6.10
2017-09-05T16:21:46.538Z,5.90
2017-09-05T16:24:13.907Z,5.80
2017-09-05T16:26:41.218Z,5.90
2017-09-05T16:29:08.681Z,5.63
2017-09-05T16:31:35.990Z,5.50
2017-09-05T16:34:03.301Z,5.60
2017-09-05T16:36:30.616Z,5.43
2017-09-05T16:38:57.935Z,5.70
2017-09-05T16:41:25.501Z,5.30
2017-09-05T16:43:52.823Z,6.43
2017-09-05T16:46:20.145Z,6.63
2017-09-05T16:48:47.451Z,7.17
2017-09-05T16:51:14.750Z,6.97
2017-09-05T16:53:42.071Z,6.93
2017-09-05T16:56:09.420Z,7.30
2017-09-05T16:58:36.763Z,6.60
2017-09-05T17:01:04.116Z,6.33
2017-09-05T17:03:31.449Z,7.03
2017-09-05T17:05:59.016Z,7.00
2017-09-05T17:08:26.330Z,7.10
2017-09-05T17:10:53.682Z,7.10
2017-09-05T17:13:21.003Z,7.00
2017-09-05T17:15:48.353Z,6.40
2017-09-05T17:18:15.811Z,8.17
2017-09-05T17:20:43.360Z,7.37
2017-09-05T17:23:10.680Z,6.50
2017-09-05T17:25:38.065Z,8.00
2017-09-05T17:28:05.365Z,7.30
2017-09-05T17:30:32.691Z,7.00
2017-09-05T17:32:59.995Z,8.07
2017-09-05T17:35:27.352Z,7.07
2017-09-05T17:37:54.646Z,7.30
2017-09-05T17:40:21.977Z,7.90
2017-09-05T17:42:49.306Z,7.73
2017-09-05T17:45:17.662Z,7.80
2017-09-05T17:47:45.012Z,7.30
2017-09-05T17:50:12.358Z,7.90
2017-09-05T17:52:39.694Z,8.70
2017-09-05T17:55:07.076Z,8.40
2017-09-05T17:57:34.389Z,8.40
2017-09-05T18:00:01.732Z,8.30
2017-09-05T18:02:29.217Z,8.30
2017-09-05T18:04:56.661Z,8.70
2017-09-05T18:07:23.953Z,8.60
2017-09-05T18:09:51.321Z,8.60
2017-09-05T18:12:18.625Z,9.50
2017-09-05T18:14:45.996Z,8.83
2017-09-05T18:17:13.401Z,9.37
2017-09-05T18:19:40.910Z,9.67
2017-09-05T18:22:08.247Z,10.50
2017-09-05T18:24:35.568Z,9.50
2017-09-05T18:27:02.940Z,10.00
2017-09-05T18:29:30.247Z,9.50
2017-09-05T18:31:57.603Z,10.00
2017-09-05T18:34:24.913Z,10.43
2017-09-05T18:36:52.286Z,10.83
2017-09-05T18:39:19.647Z,10.90
2017-09-05T18:41:46.974Z,10.60
2017-09-05T18:44:14.289Z,12.03
2017-09-05T18:46:41.613Z,10.40
2017-09-05T18:49:08.962Z,12.07
2017-09-05T18:51:36.322Z,11.63
2017-09-05T18:54:03.670Z,12.20
2017-09-05T18:56:30.997Z,12.03
2017-09-05T18:58:58.461Z,12.47
2017-09-05T19:01:26.309Z,12.20
2017-09-05T19:03:53.757Z,13.40
2017-09-05T19:06:21.091Z,12.40
2017-09-05T19:08:48.855Z,12.20
2017-09-05T19:11:16.190Z,12.07
2017-09-05T19:13:43.494Z,12.80
2017-09-05T19:16:10.834Z,12.67
2017-09-05T19:18:38.216Z,12.87
2017-09-05T19:21:05.540Z,12.93
2017-09-05T19:23:32.928Z,12.93
2017-09-05T19:26:00.267Z,12.27
2017-09-05T19:28:27.574Z,12.03
2017-09-05T19:30:54.906Z,12.40
2017-09-05T19:33:22.241Z,12.10
2017-09-05T19:35:49.576Z,12.33
2017-09-05T19:38:16.916Z,12.73
2017-09-05T19:40:44.332Z,12.50
2017-09-05T19:43:11.650Z,12.77
2017-09-05T19:45:38.997Z,12.47
2017-09-05T19:48:07.091Z,12.57
2017-09-05T19:50:34.425Z,12.90
2017-09-05T19:53:01.811Z,13.00
2017-09-05T19:55:29.249Z,13.23
2017-09-05T19:57:56.584Z,12.80
2017-09-05T20:00:23.892Z,13.00
2017-09-05T20:02:51.254Z,13.37
2017-09-05T20:05:18.585Z,14.00
2017-09-05T20:07:45.956Z,13.27
2017-09-05T20:10:13.561Z,12.40
2017-09-05T20:12:40.944Z,12.97
2017-09-05T20:15:08.963Z,12.27
2017-09-05T20:17:36.346Z,12.47
2017-09-05T20:20:03.668Z,12.80
2017-09-05T20:22:31.117Z,12.67
2017-09-05T20:24:59.240Z,12.50
2017-09-05T20:27:26.591Z,12.43
2017-09-05T20:29:54.148Z,12.20
2017-09-05T20:32:21.506Z,13.47
2017-09-05T20:34:48.812Z,13.10
2017-09-05T20:37:16.328Z,13.20
2017-09-05T20:39:43.642Z,13.50
2017-09-05T20:42:10.967Z,13.60
2017-09-05T20:44:38.334Z,13.80
2017-09-05T20:47:05.695Z,14.30
2017-09-05T20:49:33.000Z,15.00
2017-09-05T20:52:01.098Z,14.63
2017-09-05T20:54:28.414Z,13.87
2017-09-05T20:56:55.741Z,12.97
2017-09-05T20:59:23.063Z,13.53
2017-09-05T21:01:50.425Z,13.67
2017-09-05T21:04:17.747Z,14.70
2017-09-05T21:06:45.098Z,14.50
2017-09-05T21:09:12.414Z,14.13
2017-09-05T21:11:39.793Z,15.10
2017-09-05T21:14:07.096Z,14.13
2017-09-05T21:16:34.414Z,14.80
2017-09-05T21:19:01.742Z,15.47
2017-09-05T21:21:29.083Z,15.60
2017-09-05T21:23:56.396Z,15.90
2017-09-05T21:26:23.700Z,15.67
2017-09-05T21:28:51.050Z,16.90
2017-09-05T21:31:18.407Z,17.10
2017-09-05T21:33:45.755Z,17.53
2017-09-05T21:36:13.095Z,16.43
2017-09-05T21:38:40.425Z,17.40
2017-09-05T21:41:07.749Z,17.50
2017-09-05T21:43:35.105Z,18.60
2017-09-05T21:46:02.428Z,18.00
2017-09-05T21:48:29.798Z,17.80
2017-09-05T21:50:57.116Z,17.40
2017-09-05T21:53:24.473Z,18.60
2017-09-05T21:55:51.799Z,18.27
2017-09-05T21:58:19.157Z,17.50
2017-09-05T22:00:46.544Z,19.40
2017-09-05T22:03:13.886Z,20.27
2017-09-05T22:05:41.580Z,19.53
2017-09-05T22:08:09.094Z,20.47
2017-09-05T22:10:36.405Z,21.30
2017-09-05T22:13:03.734Z,21.80
2017-09-05T22:15:34.944Z,21.20
2017-09-05T22:18:02.308Z,22.10
2017-09-05T22:20:44.505Z,22.67
2017-09-05T22:23:11.847Z,22.80
2017-09-05T22:25:44.911Z,23.80
2017-09-05T22:28:17.963Z,23.57
2017-09-05T22:30:45.302Z,23.63
2017-09-05T22:33:12.662Z,22.87
2017-09-05T22:35:39.969Z,23.63
2017-09-05T22:38:07.323Z,22.87
2017-09-05T22:40:34.672Z,22.87
2017-09-05T22:43:02.014Z,22.13
2017-09-05T22:45:29.345Z,23.80
2017-09-05T22:47:56.698Z,23.63
2017-09-05T22:50:24.044Z,21.67
2017-09-05T22:52:51.391Z,23.90
2017-09-05T22:55:18.722Z,23.00
2017-09-05T22:57:46.079Z,22.77
2017-09-05T23:00:13.398Z,23.27
2017-09-05T23:02:40.702Z,23.67
2017-09-05T23:05:08.044Z,22.53
2017-09-05T23:07:35.426Z,23.50
2017-09-05T23:10:02.779Z,24.23
2017-09-05T23:12:30.103Z,22.47
2017-09-05T23:14:57.436Z,23.00
2017-09-05T23:17:24.768Z,23.97
2017-09-05T23:19:52.143Z,22.33
2017-09-05T23:22:19.457Z,21.53
2017-09-05T23:24:46.852Z,23.80
2017-09-05T23:27:14.188Z,24.03
2017-09-05T23:29:42.109Z,25.47
2017-09-05T23:32:09.428Z,23.60
2017-09-05T23:34:36.766Z,24.20
2017-09-05T23:37:04.122Z,24.50
2017-09-05T23:39:31.456Z,22.57
2017-09-05T23:41:58.793Z,23.10
2017-09-05T23:44:26.161Z,23.00
2017-09-05T23:46:53.491Z,23.20
2017-09-05T23:49:20.834Z,23.40
2017-09-05T23:51:48.189Z,24.03
2017-09-05T23:54:15.550Z,23.47
2017-09-05T23:56:42.857Z,23.83
2017-09-05T23:59:10.206Z,22.27
